Accueil
METAR-TAF:

METAR-TAF

Aéroports :

Aéroport de Val-d'Or

Val-d'Or, Québec, Canada

latitude: 48-04N, longitude: 077-47W, altitude: 337 m

Observation

Le bulletin a été fait il y a 30 minutes, à 21:00 UTC
Vent 5 kt de sud/sud-est
Température 2°C
Humidité 87%
Pression 1015 hPa
Visibilité: 16.1 km
Quelques nuages à une hauteur de 1700 ft
Nuages fragmentés à une hauteur de 3000 ft

METAR: CYVO 222100Z 16005KT 10SM FEW017 BKN030 02/M00 A2998 RMK SC2SC4 SLP175

Heure: 17:30 (21:30 UTC)

Prévision

Le bulletin a été fait il y a 3 heures et 52 minutes, à 17:38 UTC
Prévision valable du 22 à 18 UTC au 23 à 06 UTC
Vent 8 kt de sud/sud-est
Visibilité: 6.4 km
Nuages fragmentés à une hauteur de 1500 ft
faibles averses de neige
Temporairement
du 22 à 18 UTC au 23 à 06 UTC
Visibilité: 10 km
Nuages fragmentés à une hauteur de 2500 ft

TAF: CYVO 221738Z 2218/2306 16008KT 4SM -SHSN BKN015 TEMPO 2218/2306 P6SM NSW BKN025 RMK NXT FCST BY 230000Z

Observations et prévisions météorologiques de plus de 4000 aéroports (messages METAR et TAF).

Les stations disponibles sont représentées par des disques jaunes et rouges sur la carte.

Passer la souris dessus pour voir le nom de la station.

Cliquer dessus pour voir les observations et prévisions météorologiques.

Pour changer de carte: cliquez sur les boutons verts avec une croix noire pour zoomer, sur le bouton vert avec un tiret pour effectuer un zoom arrière, ou sur les flèches vertes pour les cartes adjacentes.


METAR-TAF: